Terminal Aerodrome Forecast
Issued by NWS Wakefield, VA

Home | Current Version | Previous Version | Text Only | Print | Product List | Glossary On
Versions: 1 2 3 4 5 6 7 8 9 10 11 12 13 14 15 16 17 18 19 20
000
FTUS41 KAKQ 201720
TAFRIC
TAF
KRIC 201720Z 2018/2118 08004KT P6SM FEW040
     FM202300 VRB02KT P6SM SKC
     FM210800 00000KT 4SM BR SKC
     FM211200 19004KT P6SM SCT080=

USA.gov is the U.S. government's official web portal to all federal, state and local government web resources and services.